Time;durP1;ratioP1;P1;durP2;ratioP2;P2;SDS_P1;SDS_P2;PMS_P1;PMS_P2;Temp;Humidity;BMP_temperature;BMP_pressure;BME280_temperature;BME280_humidity;BME280_pressure;Samples;Min_cycle;Max_cycle;Signal;HPM_P1;HPM_P2
2023/12/11 00:01:49;;;;;;;35.77;9.43;;;;;;;8.40;100.00;99821.81;5144793;28;20036;-84
2023/12/11 00:04:20;;;;;;;39.27;9.47;;;;;;;8.36;100.00;99827.97;5144706;28;20115;-83
2023/12/11 00:06:51;;;;;;;42.83;9.40;;;;;;;8.38;100.00;99823.59;5157946;29;20032;-84
2023/12/11 00:09:23;;;;;;;46.00;11.40;;;;;;;8.37;100.00;99833.16;5141193;29;20051;-84
2023/12/11 00:11:54;;;;;;;48.93;11.30;;;;;;;8.40;100.00;99834.81;5139688;28;20031;-84
2023/12/11 00:14:26;;;;;;;39.20;9.27;;;;;;;8.35;100.00;99831.44;5138205;29;20060;-84
2023/12/11 00:16:57;;;;;;;38.13;9.23;;;;;;;8.42;100.00;99837.38;5137650;29;20062;-83
2023/12/11 00:19:29;;;;;;;41.57;9.47;;;;;;;8.36;100.00;99839.22;5137397;29;20042;-84
2023/12/11 00:22:00;;;;;;;37.53;9.00;;;;;;;8.41;100.00;99831.34;5137332;29;20040;-83
2023/12/11 00:24:31;;;;;;;45.10;9.27;;;;;;;8.46;100.00;99841.69;5152344;28;20143;-83
2023/12/11 00:27:04;;;;;;;38.10;9.07;;;;;;;8.36;100.00;99827.97;5137230;29;20085;-83
2023/12/11 00:29:36;;;;;;;;;;;;;;;8.37;100.00;99830.56;5219666;28;20036;-83
2023/12/11 00:32:07;;;;;;;34.20;8.45;;;;;;;8.33;100.00;99831.47;5137158;28;19987;-82
2023/12/11 00:34:38;;;;;;;32.80;9.63;;;;;;;8.33;100.00;99825.44;5152195;28;20075;-82
2023/12/11 00:37:10;;;;;;;42.33;10.10;;;;;;;8.30;100.00;99822.91;5138975;28;20105;-82
2023/12/11 00:39:41;;;;;;;38.87;9.00;;;;;;;8.36;100.00;99812.41;5140808;28;20439;-83
2023/12/11 00:42:12;;;;;;;41.03;9.67;;;;;;;8.40;100.00;99817.50;5140577;29;20028;-84
2023/12/11 00:44:44;;;;;;;44.90;10.03;;;;;;;8.51;100.00;99819.06;5140355;28;20475;-83
2023/12/11 00:47:15;;;;;;;37.50;9.03;;;;;;;8.54;100.00;99829.41;5222793;28;20039;-84
2023/12/11 00:49:47;;;;;;;45.53;11.83;;;;;;;8.64;100.00;99812.72;5140418;28;20036;-84
2023/12/11 00:52:19;;;;;;;35.72;8.85;;;;;;;8.74;100.00;99813.38;5140675;28;20059;-85
2023/12/11 00:54:50;;;;;;;38.73;11.10;;;;;;;8.78;100.00;99814.19;5222698;28;20509;-83
2023/12/11 00:57:22;;;;;;;46.30;12.17;;;;;;;8.73;100.00;99812.53;5140693;28;20028;-84
2023/12/11 00:59:53;;;;;;;41.67;10.50;;;;;;;8.78;100.00;99811.59;5140745;29;20051;-83
2023/12/11 01:02:25;;;;;;;43.50;11.33;;;;;;;8.70;100.00;99801.38;5142595;28;20063;-85
2023/12/11 01:04:57;;;;;;;41.83;9.73;;;;;;;8.67;100.00;99799.66;5144113;28;20095;-85
2023/12/11 01:07:29;;;;;;;38.90;11.40;;;;;;;8.66;100.00;99791.91;5158061;29;20490;-84
2023/12/11 01:10:01;;;;;;;44.40;9.77;;;;;;;8.67;100.00;99799.66;5141880;28;20036;-85
2023/12/11 01:12:32;;;;;;;43.05;9.75;;;;;;;8.67;100.00;99794.47;5149071;28;20127;-84
2023/12/11 01:15:04;;;;;;;39.80;11.83;;;;;;;8.67;100.00;99788.44;5151077;28;20074;-84
2023/12/11 01:17:36;;;;;;;37.63;9.33;;;;;;;8.78;100.00;99790.81;5150722;28;20040;-82
2023/12/11 01:20:08;;;;;;;43.67;9.50;;;;;;;8.62;100.00;99793.72;5150151;29;20061;-83
2023/12/11 01:22:40;;;;;;;37.53;9.43;;;;;;;8.71;100.00;99780.56;5148903;28;20043;-84
2023/12/11 01:25:11;;;;;;;34.80;8.23;;;;;;;8.78;100.00;99783.03;5149854;28;20035;-85
2023/12/11 01:27:42;;;;;;;34.90;8.80;;;;;;;8.81;100.00;99776.00;5164490;29;20035;-86
2023/12/11 01:30:14;;;;;;;46.03;10.23;;;;;;;8.94;100.00;99787.00;5143962;28;20032;-82
2023/12/11 01:32:45;;;;;;;40.33;9.50;;;;;;;8.91;100.00;99784.47;5156052;28;20059;-85
2023/12/11 01:35:17;;;;;;;47.63;10.77;;;;;;;8.96;100.00;99780.00;5139753;29;20040;-84
2023/12/11 01:37:48;;;;;;;32.93;10.60;;;;;;;8.89;100.00;99775.84;5140253;29;20031;-86
2023/12/11 01:40:20;;;;;;;42.40;10.50;;;;;;;8.92;100.00;99762.78;5140175;28;20059;-85
2023/12/11 01:42:51;;;;;;;43.03;11.87;;;;;;;9.01;100.00;99765.16;5140207;28;20035;-85
2023/12/11 01:45:22;;;;;;;37.83;9.57;;;;;;;9.00;100.00;99776.47;5140190;28;20040;-85
2023/12/11 01:47:54;;;;;;;31.77;9.97;;;;;;;9.04;100.00;99770.28;5153292;28;20067;-83
2023/12/11 01:50:25;;;;;;;29.97;8.50;;;;;;;9.05;100.00;99764.22;5140212;29;20035;-85
2023/12/11 01:52:58;;;;;;;30.77;7.87;;;;;;;9.15;100.00;99772.66;5139268;28;20120;-84
2023/12/11 01:55:32;;;;;;;28.65;8.35;;;;;;;9.22;100.00;99750.78;5139496;28;20043;-84
2023/12/11 01:58:05;;;;;;;34.42;7.85;;;;;;;9.20;100.00;99741.34;5140089;29;20077;-87
2023/12/11 02:00:37;;;;;;;27.20;8.68;;;;;;;9.29;100.00;99746.31;5139545;28;20120;-85
2023/12/11 02:03:09;;;;;;;30.20;7.50;;;;;;;9.23;100.00;99744.72;5139181;28;20028;-83
2023/12/11 02:05:44;;;;;;;51.92;9.75;;;;;;;9.25;100.00;99742.94;5139106;29;20036;-83
2023/12/11 02:08:16;;;;;;;36.72;10.18;;;;;;;9.23;100.00;99723.91;5139148;29;20060;-85
2023/12/11 02:10:48;;;;;;;34.17;9.10;;;;;;;9.29;100.00;99738.53;5139414;28;20089;-81
2023/12/11 02:13:20;;;;;;;33.30;8.38;;;;;;;9.29;100.00;99733.31;5138849;28;20084;-84
2023/12/11 02:15:52;;;;;;;41.40;10.97;;;;;;;9.30;100.00;99727.22;5138905;29;20040;-83
2023/12/11 02:18:23;;;;;;;31.37;8.60;;;;;;;9.22;100.00;99735.19;5138839;29;20123;-84
2023/12/11 02:20:54;;;;;;;34.87;9.87;;;;;;;9.24;100.00;99737.75;5153800;29;20036;-82
2023/12/11 02:23:46;;;;;;;41.07;12.43;;;;;;;9.14;100.00;99737.13;5138932;29;20159;-83
2023/12/11 02:26:18;;;;;;;33.92;8.02;;;;;;;9.13;100.00;99733.69;5138700;28;20040;-84
2023/12/11 02:28:50;;;;;;;38.90;11.43;;;;;;;9.22;100.00;99731.75;5138546;28;20077;-82
2023/12/11 02:31:21;;;;;;;33.17;8.47;;;;;;;9.21;100.00;99723.09;5138389;29;20059;-85
2023/12/11 02:33:53;;;;;;;34.40;9.43;;;;;;;9.21;100.00;99719.63;5153356;28;20036;-82
2023/12/11 02:36:24;;;;;;;31.47;9.00;;;;;;;9.17;100.00;99723.22;5136961;28;20032;-85
2023/12/11 02:38:56;;;;;;;44.33;11.17;;;;;;;9.16;100.00;99717.16;5138993;28;20032;-85
2023/12/11 02:41:27;;;;;;;32.40;8.30;;;;;;;9.12;100.00;99710.31;5138662;28;20497;-85
2023/12/11 02:43:59;;;;;;;34.00;8.77;;;;;;;9.06;100.00;99705.25;5138630;28;20063;-85
2023/12/11 02:46:30;;;;;;;31.83;9.20;;;;;;;9.02;100.00;99698.44;5138902;28;20054;-85
2023/12/11 02:49:01;;;;;;;34.27;9.43;;;;;;;9.02;100.00;99696.69;5138437;29;20497;-85
2023/12/11 02:51:33;;;;;;;29.97;8.40;;;;;;;9.06;100.00;99702.66;5148644;28;20056;-82
2023/12/11 02:54:04;;;;;;;27.83;8.13;;;;;;;9.10;100.00;99691.31;5138244;28;20042;-85
2023/12/11 02:56:40;;;;;;;34.83;8.80;;;;;;;9.05;100.00;99707.03;5137780;28;20479;-83
2023/12/11 02:59:11;;;;;;;28.08;6.47;;;;;;;9.01;100.00;99679.38;5138218;29;20041;-85
2023/12/11 03:01:42;;;;;;;34.87;8.03;;;;;;;8.96;100.00;99672.59;5138316;28;20039;-84
2023/12/11 03:04:14;;;;;;;27.67;7.57;;;;;;;8.73;100.00;99667.03;5138526;29;20554;-85
2023/12/11 03:06:45;;;;;;;33.97;8.27;;;;;;;8.73;100.00;99661.00;5138584;29;20032;-84
2023/12/11 03:09:16;;;;;;;28.37;7.33;;;;;;;8.74;100.00;99647.09;5139044;29;20139;-83
2023/12/11 03:11:48;;;;;;;29.97;7.73;;;;;;;8.81;100.00;99661.66;5144370;29;20095;-81
2023/12/11 03:14:19;;;;;;;35.23;7.87;;;;;;;8.83;100.00;99649.47;5150935;28;20031;-84
2023/12/11 03:16:50;;;;;;;39.93;9.00;;;;;;;8.78;100.00;99653.09;5153947;29;20040;-83
2023/12/11 03:19:22;;;;;;;28.43;6.27;;;;;;;8.75;100.00;99646.22;5140466;29;20027;-84
2023/12/11 03:21:55;;;;;;;33.13;7.70;;;;;;;8.70;100.00;99638.53;5141094;29;20190;-83
2023/12/11 03:24:27;;;;;;;28.25;8.70;;;;;;;8.78;100.00;99637.50;5138598;29;20036;-85
2023/12/11 03:26:58;;;;;;;45.30;11.97;;;;;;;8.70;100.00;99642.88;5138694;28;20039;-85
2023/12/11 03:29:29;;;;;;;31.83;8.20;;;;;;;8.63;100.00;99638.69;5138634;28;20358;-87
2023/12/11 03:32:01;;;;;;;31.43;7.03;;;;;;;8.67;100.00;99648.16;5137840;29;20479;-87
2023/12/11 03:34:32;;;;;;;28.00;7.87;;;;;;;8.66;100.00;99641.22;5138122;28;20398;-89
2023/12/11 03:37:03;;;;;;;26.47;8.43;;;;;;;8.78;100.00;99647.91;5138036;28;20063;-91
2023/12/11 03:39:35;;;;;;;29.90;8.57;;;;;;;8.80;100.00;99646.13;5141043;28;20043;-86
2023/12/11 03:42:06;;;;;;;25.60;6.57;;;;;;;8.79;100.00;99647.00;5139789;29;20044;-85
2023/12/11 03:44:38;;;;;;;26.80;7.43;;;;;;;8.79;100.00;99647.88;5139131;29;20472;-88
2023/12/11 03:47:09;;;;;;;23.13;6.17;;;;;;;8.83;100.00;99659.03;5156163;29;20036;-88
2023/12/11 03:49:40;;;;;;;27.17;5.93;;;;;;;8.83;100.00;99652.09;5152956;28;20483;-86
2023/12/11 03:52:12;;;;;;;27.07;6.70;;;;;;;8.61;100.00;99638.72;5138423;28;20130;-85
2023/12/11 03:54:43;;;;;;;27.03;6.57;;;;;;;8.48;100.00;99634.72;5137645;28;20035;-85
2023/12/11 03:57:15;;;;;;;25.17;6.07;;;;;;;8.35;100.00;99639.31;5137504;29;20395;-85
2023/12/11 03:59:46;;;;;;;25.60;5.87;;;;;;;8.29;100.00;99642.91;5137912;29;20028;-86
2023/12/11 04:02:17;;;;;;;27.57;6.60;;;;;;;8.31;100.00;99641.13;5137232;28;20122;-84
2023/12/11 04:04:49;;;;;;;26.47;7.03;;;;;;;8.29;100.00;99640.31;5137423;28;20031;-85
2023/12/11 04:07:20;;;;;;;22.97;6.03;;;;;;;8.31;100.00;99638.53;5137209;28;20197;-86
2023/12/11 04:09:52;;;;;;;25.53;6.13;;;;;;;8.28;100.00;99635.16;5136684;29;20093;-86
2023/12/11 04:12:23;;;;;;;34.50;7.23;;;;;;;8.33;100.00;99649.72;5139819;29;20070;-84
2023/12/11 04:14:54;;;;;;;34.63;7.30;;;;;;;8.51;100.00;99647.63;5141651;29;20035;-83
2023/12/11 04:17:26;;;;;;;36.47;7.97;;;;;;;8.35;100.00;99634.94;5155931;29;20126;-85
2023/12/11 04:19:57;;;;;;;33.07;7.37;;;;;;;8.25;100.00;99623.06;5140908;29;20512;-85
2023/12/11 04:22:29;;;;;;;27.47;7.80;;;;;;;8.21;100.00;99635.28;5140706;28;20469;-80
2023/12/11 04:25:00;;;;;;;32.30;8.67;;;;;;;8.15;100.00;99650.13;5140519;29;20028;-82
2023/12/11 04:27:32;;;;;;;36.83;8.83;;;;;;;8.10;100.00;99624.25;5140571;28;20035;-82
2023/12/11 04:30:04;;;;;;;36.33;10.10;;;;;;;8.09;100.00;99614.75;5140398;29;20404;-82
2023/12/11 04:32:35;;;;;;;34.45;8.32;;;;;;;8.08;100.00;99622.56;5140321;29;20059;-82
2023/12/11 04:35:07;;;;;;;33.03;7.07;;;;;;;8.05;100.00;99607.94;5139958;29;20185;-83
2023/12/11 04:37:38;;;;;;;36.57;9.33;;;;;;;7.99;100.00;99603.72;5140747;28;20131;-83
2023/12/11 04:40:10;;;;;;;37.33;8.57;;;;;;;8.02;100.00;99613.19;5141993;28;20039;-82
2023/12/11 04:42:42;;;;;;;42.87;8.73;;;;;;;7.98;100.00;99604.59;5140803;29;20101;-81
2023/12/11 04:45:13;;;;;;;38.30;8.50;;;;;;;7.95;100.00;99603.81;5140421;28;20351;-84
2023/12/11 04:47:44;;;;;;;36.27;8.17;;;;;;;7.95;100.00;99612.47;5140654;29;20032;-82
2023/12/11 04:50:16;;;;;;;34.87;7.83;;;;;;;7.96;100.00;99621.94;5140997;28;20451;-79
2023/12/11 04:52:47;;;;;;;42.30;8.37;;;;;;;8.02;100.00;99614.03;5143156;29;20105;-84
2023/12/11 04:55:19;;;;;;;38.83;7.30;;;;;;;7.95;100.00;99602.09;5160099;28;20043;-84
2023/12/11 04:57:50;;;;;;;31.67;8.17;;;;;;;7.98;100.00;99606.34;5142374;28;20035;-83
2023/12/11 05:00:22;;;;;;;30.60;9.07;;;;;;;8.04;100.00;99603.63;5181095;28;20040;-81
2023/12/11 05:02:53;;;;;;;37.20;9.53;;;;;;;8.09;100.00;99606.13;5246187;28;20049;-81
2023/12/11 05:05:25;;;;;;;28.37;7.83;;;;;;;8.06;100.00;99591.47;5244684;28;20086;-81
2023/12/11 05:07:56;;;;;;;31.90;9.07;;;;;;;8.01;100.00;99601.09;5244618;28;20494;-82
2023/12/11 05:10:27;;;;;;;46.23;8.63;;;;;;;8.01;100.00;99595.91;5260475;28;20480;-82
2023/12/11 05:12:59;;;;;;;43.57;7.93;;;;;;;7.98;100.00;99598.56;5244989;28;20033;-81
2023/12/11 05:15:30;;;;;;;45.67;8.53;;;;;;;7.96;100.00;99611.56;5249797;28;20029;-80
2023/12/11 05:18:02;;;;;;;39.50;8.53;;;;;;;8.04;100.00;99619.19;5255970;28;20034;-81
2023/12/11 05:20:33;;;;;;;34.30;8.90;;;;;;;8.03;100.00;99613.16;5268200;28;20018;-80
2023/12/11 05:23:04;;;;;;;38.53;9.27;;;;;;;8.05;100.00;99605.34;5264016;28;20059;-81
2023/12/11 05:25:36;;;;;;;40.00;8.47;;;;;;;8.05;100.00;99602.75;5261826;28;20021;-78
2023/12/11 05:28:07;;;;;;;45.60;9.40;;;;;;;8.07;100.00;99600.97;5254418;28;20037;-79
2023/12/11 05:30:38;;;;;;;40.27;10.07;;;;;;;8.08;100.00;99613.03;5243629;28;20037;-80
2023/12/11 05:33:10;;;;;;;37.23;9.23;;;;;;;8.07;100.00;99607.91;5244347;28;20033;-79
2023/12/11 05:35:41;;;;;;;42.70;8.57;;;;;;;8.02;100.00;99614.03;5244080;28;20053;-79
2023/12/11 05:38:12;;;;;;;38.27;10.13;;;;;;;8.11;100.00;99610.38;5244038;28;20034;-80
2023/12/11 05:40:45;;;;;;;43.00;9.80;;;;;;;8.06;100.00;99604.44;5244868;28;20112;-80
2023/12/11 05:43:16;;;;;;;45.95;10.75;;;;;;;8.06;100.00;99595.81;5244086;28;20176;-79
2023/12/11 05:45:48;;;;;;;31.83;8.17;;;;;;;8.04;100.00;99595.84;5244718;28;20110;-80
2023/12/11 05:48:19;;;;;;;35.50;7.67;;;;;;;8.03;100.00;99600.19;5244613;28;20056;-81
2023/12/11 05:50:50;;;;;;;36.40;8.13;;;;;;;8.02;100.00;99603.66;5243117;28;20104;-81
2023/12/11 05:53:22;;;;;;;42.63;8.23;;;;;;;8.02;100.00;99603.66;5243392;28;20045;-79
2023/12/11 05:55:53;;;;;;;34.33;6.97;;;;;;;8.04;100.00;99585.47;5241948;28;20407;-78
2023/12/11 05:58:24;;;;;;;30.63;7.53;;;;;;;8.03;100.00;99599.31;5251314;28;20047;-80
2023/12/11 06:00:56;;;;;;;41.53;10.30;;;;;;;8.07;100.00;99603.56;5252805;28;20033;-80
2023/12/11 06:03:28;;;;;;;41.97;8.93;;;;;;;8.07;100.00;99600.97;5255154;28;20029;-79
2023/12/11 06:05:59;;;;;;;36.17;8.97;;;;;;;8.03;100.00;99599.31;5253635;28;20064;-79
2023/12/11 06:08:30;;;;;;;42.30;9.63;;;;;;;8.03;100.00;99596.72;5232211;28;20052;-80
2023/12/11 06:11:02;;;;;;;32.57;7.57;;;;;;;8.04;100.00;99608.81;5247947;28;20042;-79
2023/12/11 06:13:33;;;;;;;33.50;7.23;;;;;;;8.08;100.00;99587.09;5245105;28;20057;-79
2023/12/11 06:16:05;;;;;;;33.93;8.80;;;;;;;8.03;100.00;99595.00;5245440;28;20041;-79
2023/12/11 06:18:38;;;;;;;30.63;7.20;;;;;;;8.03;100.00;99602.78;5245350;28;20037;-78
2023/12/11 06:21:28;;;;;;;32.85;7.72;;;;;;;7.98;100.00;99609.78;5244553;28;20036;-78
2023/12/11 06:23:59;;;;;;;36.75;10.30;;;;;;;7.97;100.00;99609.81;5244230;28;20107;-78
2023/12/11 06:26:34;;;;;;;44.43;9.30;;;;;;;8.07;100.00;99605.31;5225708;28;20065;-77
2023/12/11 06:29:05;;;;;;;34.28;9.55;;;;;;;8.01;100.00;99607.13;5244535;28;20029;-77
2023/12/11 06:31:36;;;;;;;41.60;8.73;;;;;;;7.95;100.00;99603.81;5245991;28;20044;-78
2023/12/11 06:34:08;;;;;;;38.73;8.43;;;;;;;7.97;100.00;99605.50;5243268;28;20057;-78
2023/12/11 06:36:39;;;;;;;36.77;7.93;;;;;;;7.93;100.00;99603.00;5242656;28;20539;-79
2023/12/11 06:39:10;;;;;;;29.13;7.77;;;;;;;7.90;100.00;99609.09;5241603;28;20042;-79
2023/12/11 06:41:42;;;;;;;39.10;9.33;;;;;;;7.95;100.00;99614.19;5242799;28;20045;-78
2023/12/11 06:44:13;;;;;;;41.43;7.20;;;;;;;7.89;100.00;99612.59;5241452;28;20059;-79
2023/12/11 06:46:45;;;;;;;33.20;7.40;;;;;;;7.90;100.00;99613.44;5242205;28;20557;-79
2023/12/11 06:49:16;;;;;;;34.97;7.57;;;;;;;7.85;100.00;99608.34;5240942;28;20389;-79
2023/12/11 06:51:48;;;;;;;33.70;8.20;;;;;;;7.89;100.00;99616.91;5257469;28;20480;-78
2023/12/11 06:54:19;;;;;;;28.52;7.00;;;;;;;7.88;100.00;99610.03;5242285;28;20113;-79
2023/12/11 06:56:51;;;;;;;32.77;8.73;;;;;;;7.88;100.00;99625.59;5242467;28;20113;-79
2023/12/11 06:59:22;;;;;;;39.50;8.17;;;;;;;7.93;100.00;99623.75;5242320;28;20392;-79
2023/12/11 07:01:53;;;;;;;26.87;7.93;;;;;;;7.96;100.00;99621.94;5242474;28;20103;-79
2023/12/11 07:04:26;;;;;;;38.50;8.50;;;;;;;8.01;100.00;99629.63;5242143;28;20021;-80
2023/12/11 07:06:57;;;;;;;28.75;6.88;;;;;;;8.02;100.00;99634.81;5241614;28;20040;-80
2023/12/11 07:09:31;;;;;;;35.87;7.30;;;;;;;8.01;100.00;99632.25;5240556;28;20492;-79
2023/12/11 07:12:02;;;;;;;28.05;7.55;;;;;;;8.04;100.00;99633.03;5242089;28;20384;-77
2023/12/11 07:14:34;;;;;;;29.97;6.33;;;;;;;8.08;100.00;99633.81;5242265;28;20026;-79
2023/12/11 07:17:05;;;;;;;27.53;6.10;;;;;;;8.15;100.00;99634.56;5242253;28;20064;-79
2023/12/11 07:19:37;;;;;;;32.80;8.43;;;;;;;8.13;100.00;99636.31;5241960;28;20068;-78
2023/12/11 07:22:08;;;;;;;25.90;8.27;;;;;;;8.06;100.00;99647.72;5241897;28;20039;-78
2023/12/11 07:24:40;;;;;;;27.30;6.47;;;;;;;8.12;100.00;99652.78;5242064;28;20132;-78
2023/12/11 07:27:11;;;;;;;29.07;6.80;;;;;;;8.08;100.00;99662.34;5241862;28;20111;-80
2023/12/11 07:29:42;;;;;;;27.67;6.33;;;;;;;8.10;100.00;99662.31;5241558;28;20032;-77
2023/12/11 07:32:14;;;;;;;29.43;6.57;;;;;;;8.16;100.00;99651.81;5241571;28;20037;-78
2023/12/11 07:34:45;;;;;;;25.70;7.03;;;;;;;8.09;100.00;99671.84;5241590;28;20541;-77
2023/12/11 07:37:17;;;;;;;26.73;7.07;;;;;;;8.19;100.00;99682.91;5241758;28;20037;-79
2023/12/11 07:39:48;;;;;;;26.47;6.50;;;;;;;8.11;100.00;99684.81;5257318;28;20038;-80
2023/12/11 07:42:20;;;;;;;24.47;7.67;;;;;;;8.10;100.00;99699.53;5240842;28;20030;-79
2023/12/11 07:44:51;;;;;;;25.07;7.27;;;;;;;8.01;100.00;99684.13;5241620;28;20187;-79
2023/12/11 07:47:23;;;;;;;25.30;6.10;;;;;;;7.95;100.00;99705.00;5240633;28;20064;-79
2023/12/11 07:49:54;;;;;;;25.03;7.97;;;;;;;7.93;100.00;99694.66;5241334;28;20036;-77
2023/12/11 07:52:30;;;;;;;34.90;7.87;;;;;;;7.89;100.00;99721.56;5241526;28;20045;-78
2023/12/11 07:55:01;;;;;;;23.08;6.93;;;;;;;7.88;100.00;99711.22;5241636;28;20030;-79
2023/12/11 07:57:32;;;;;;;26.90;6.67;;;;;;;7.87;100.00;99712.94;5241382;28;20052;-77
2023/12/11 08:00:05;;;;;;;25.93;7.07;;;;;;;7.81;100.00;99706.16;5241491;28;20042;-78
2023/12/11 08:02:37;;;;;;;22.30;5.63;;;;;;;7.84;100.00;99716.47;5241471;28;20025;-77
2023/12/11 08:05:09;;;;;;;29.98;6.95;;;;;;;7.83;100.00;99717.34;5241213;28;20151;-78
2023/12/11 08:07:41;;;;;;;27.17;7.68;;;;;;;7.96;100.00;99728.34;5240743;28;20053;-77
2023/12/11 08:10:12;;;;;;;21.23;5.80;;;;;;;7.99;100.00;99741.25;5240070;28;20113;-78
2023/12/11 08:12:49;;;;;;;18.07;6.07;;;;;;;7.97;100.00;99747.34;5241391;28;20044;-79
2023/12/11 08:15:21;;;;;;;24.58;6.72;;;;;;;8.06;100.00;99748.94;5241382;28;20037;-76
2023/12/11 08:17:52;;;;;;;18.50;6.00;;;;;;;8.04;100.00;99746.38;5241264;28;20372;-77
2023/12/11 08:20:24;;;;;;;20.10;5.33;;;;;;;8.11;100.00;99752.28;5241615;28;20138;-78
2023/12/11 08:22:55;;;;;;;22.70;6.43;;;;;;;8.25;100.00;99739.91;5241257;28;20064;-76
2023/12/11 08:25:26;;;;;;;20.73;6.07;;;;;;;8.32;100.00;99751.00;5241507;28;20030;-79
2023/12/11 08:27:58;;;;;;;22.00;5.47;;;;;;;8.37;100.00;99757.84;5241284;28;20117;-79
2023/12/11 08:30:29;;;;;;;18.60;5.33;;;;;;;8.43;100.00;99767.25;5240989;28;20029;-78
2023/12/11 08:33:01;;;;;;;18.03;5.87;;;;;;;8.62;100.00;99767.75;5241098;28;20029;-78
2023/12/11 08:35:32;;;;;;;15.60;4.80;;;;;;;8.60;100.00;99768.66;5240570;28;20045;-77
2023/12/11 08:38:04;;;;;;;17.33;5.20;;;;;;;8.76;100.00;99781.31;5241260;28;20052;-79
2023/12/11 08:40:35;;;;;;;22.30;5.80;;;;;;;8.79;100.00;99792.50;5241364;28;20038;-78
2023/12/11 08:43:06;;;;;;;20.20;5.77;;;;;;;8.79;100.00;99787.31;5240907;28;20083;-78
2023/12/11 08:45:38;;;;;;;18.93;5.17;;;;;;;8.84;100.00;99801.06;5241176;28;20036;-77
2023/12/11 08:48:10;;;;;;;;;;;;;;;8.80;100.00;99804.63;5241005;28;20108;-76
2023/12/11 08:50:42;;;;;;;19.45;5.68;;;;;;;8.66;100.00;99805.78;5241060;28;20389;-81
2023/12/11 08:53:14;;;;;;;22.63;5.23;;;;;;;8.65;100.00;99818.78;5240926;28;20484;-79
2023/12/11 08:55:46;;;;;;;33.77;7.23;;;;;;;8.51;100.00;99830.28;5241216;28;20026;-79
2023/12/11 08:58:17;;;;;;;18.47;5.43;;;;;;;8.43;100.00;99826.13;5243309;28;20347;-78
2023/12/11 09:00:48;;;;;;;22.70;5.63;;;;;;;8.32;100.00;99840.19;5244835;28;20052;-77
2023/12/11 09:03:23;;;;;;;21.03;5.83;;;;;;;8.11;100.00;99853.53;5244907;28;20500;-75
2023/12/11 09:05:54;;;;;;;23.00;6.50;;;;;;;7.92;100.00;99858.16;5244335;28;20524;-75
2023/12/11 09:08:25;;;;;;;24.90;6.83;;;;;;;7.84;100.00;99871.25;5243146;28;20053;-75
2023/12/11 09:10:57;;;;;;;27.13;6.90;;;;;;;7.77;100.00;99872.25;5244202;28;20132;-75
2023/12/11 09:13:28;;;;;;;22.37;4.90;;;;;;;7.74;100.00;99864.53;5244612;28;20053;-76
2023/12/11 09:16:00;;;;;;;26.33;6.77;;;;;;;7.77;100.00;99865.31;5244405;28;20038;-76
2023/12/11 09:18:31;;;;;;;21.47;4.87;;;;;;;7.74;100.00;99867.97;5244423;28;20099;-76
2023/12/11 09:21:03;;;;;;;21.03;5.43;;;;;;;7.74;100.00;99880.94;5244901;28;20464;-76
2023/12/11 09:23:34;;;;;;;18.37;5.43;;;;;;;7.80;100.00;99887.78;5227128;28;20120;-76
2023/12/11 09:26:06;;;;;;;22.73;4.97;;;;;;;7.78;100.00;99894.75;5245440;28;20599;-77
2023/12/11 09:28:39;;;;;;;18.93;5.30;;;;;;;7.84;100.00;99892.03;5246192;28;20060;-77
2023/12/11 09:31:10;;;;;;;26.23;5.63;;;;;;;7.88;100.00;99898.88;5246685;28;20030;-76
2023/12/11 09:33:41;;;;;;;21.17;4.77;;;;;;;7.96;100.00;99912.59;5262505;28;20033;-77
2023/12/11 09:36:13;;;;;;;11.40;3.77;;;;;;;7.91;100.00;99917.00;5250110;28;20109;-75
2023/12/11 09:38:44;;;;;;;22.97;4.97;;;;;;;7.92;100.00;99923.03;5268425;28;20081;-77
2023/12/11 09:41:16;;;;;;;14.87;4.20;;;;;;;8.02;100.00;99919.44;5266432;28;20052;-77
2023/12/11 09:43:48;;;;;;;16.27;4.77;;;;;;;8.17;100.00;99928.72;5264853;28;20041;-77
2023/12/11 09:46:19;;;;;;;13.05;3.50;;;;;;;8.17;100.00;99928.72;5248881;28;20045;-77
2023/12/11 09:48:52;;;;;;;17.37;5.27;;;;;;;8.23;100.00;99939.00;5246406;28;20033;-77
2023/12/11 09:51:24;;;;;;;;;;;;;;;8.33;100.00;99937.94;5247366;28;20036;-78
2023/12/11 09:53:56;;;;;;;16.02;3.97;;;;;;;8.43;100.00;99945.59;5243575;28;19913;-79
2023/12/11 09:56:28;;;;;;;;;;;;;;;8.63;100.00;99956.53;5244125;28;20563;-79
2023/12/11 09:59:00;;;;;;;16.95;4.55;;;;;;;8.85;100.00;99958.69;5243445;28;20003;-79
2023/12/11 10:01:32;;;;;;;15.02;3.78;;;;;;;9.25;100.00;99963.13;5243729;28;20038;-79
2023/12/11 10:04:04;;;;;;;14.35;4.80;;;;;;;9.09;100.00;99970.38;5243869;28;20030;-80
2023/12/11 10:06:35;;;;;;;18.27;4.80;;;;;;;9.01;100.00;99978.31;5258487;28;20031;-80
2023/12/11 10:09:07;;;;;;;15.73;4.57;;;;;;;8.99;100.00;99981.84;5242535;28;20456;-79
2023/12/11 10:11:38;;;;;;;14.67;3.67;;;;;;;9.00;100.00;99989.63;5243653;28;20049;-81
2023/12/11 10:14:14;;;;;;;13.93;3.57;;;;;;;9.02;100.00;99981.78;5243501;28;20029;-80
2023/12/11 10:16:45;;;;;;;13.68;3.80;;;;;;;9.08;100.00;99976.44;5243557;28;20029;-78
2023/12/11 10:19:19;;;;;;;16.20;4.50;;;;;;;9.13;100.00;99998.03;5243433;28;20475;-79
2023/12/11 10:21:50;;;;;;;17.10;4.45;;;;;;;9.17;100.00;100001.44;5243432;28;20029;-79
2023/12/11 10:24:22;;;;;;;10.60;4.13;;;;;;;9.15;100.00;100009.25;5243068;28;20037;-78
2023/12/11 10:26:59;;;;;;;12.73;3.63;;;;;;;9.18;100.00;100013.56;5243495;28;20099;-78
2023/12/11 10:29:30;;;;;;;14.07;4.32;;;;;;;9.11;100.00;100007.59;5243010;28;20477;-80
2023/12/11 10:32:05;;;;;;;14.03;3.27;;;;;;;9.11;100.00;100018.00;5243284;28;20116;-78
2023/12/11 10:34:43;;;;;;;9.80;2.83;;;;;;;9.02;100.00;100013.84;5243643;28;20029;-78
2023/12/11 10:37:15;;;;;;;17.13;4.47;;;;;;;8.93;100.00;100027.88;5258241;28;20036;-80
2023/12/11 10:39:54;;;;;;;14.40;3.50;;;;;;;8.98;100.00;100034.72;5243674;28;20038;-81
2023/12/11 10:42:26;;;;;;;12.90;3.83;;;;;;;8.97;100.00;100041.66;5243536;28;20033;-79
2023/12/11 10:44:58;;;;;;;14.75;3.42;;;;;;;9.06;100.00;100032.81;5248484;28;20111;-79
2023/12/11 10:47:30;;;;;;;13.77;4.27;;;;;;;9.16;100.00;100049.09;5244515;28;20029;-80
2023/12/11 10:50:02;;;;;;;;;;;;;;;9.15;100.00;100048.25;5243623;28;20032;-80
2023/12/11 10:52:37;;;;;;;9.75;4.90;;;;;;;9.24;100.00;100048.09;5250577;28;19974;-81
2023/12/11 10:55:09;;;;;;;18.48;4.47;;;;;;;9.26;100.00;100050.66;5262560;28;20097;-79
2023/12/11 10:57:42;;;;;;;11.97;3.60;;;;;;;9.28;100.00;100062.72;5281235;28;20030;-79
2023/12/11 11:00:14;;;;;;;16.40;4.72;;;;;;;9.21;100.00;100068.97;5253959;28;20060;-81
2023/12/11 11:02:51;;;;;;;10.55;3.97;;;;;;;9.25;100.00;100070.59;5261399;28;20032;-80
2023/12/11 11:05:23;;;;;;;9.95;3.05;;;;;;;9.25;100.00;100070.59;5244496;28;20033;-80
2023/12/11 11:08:13;;;;;;;12.95;3.92;;;;;;;9.23;100.00;100089.72;5242682;28;20049;-80
2023/12/11 11:10:54;;;;;;;13.35;4.07;;;;;;;9.18;100.00;100086.38;5244528;28;20041;-80
2023/12/11 11:13:33;;;;;;;14.88;3.85;;;;;;;9.17;100.00;100077.69;5245009;28;20357;-81
2023/12/11 11:16:05;;;;;;;13.27;3.53;;;;;;;9.13;100.00;100083.84;5247008;28;20035;-81
2023/12/11 11:19:03;;;;;;;9.33;3.40;;;;;;;9.16;100.00;100085.50;5253857;28;20057;-79
2023/12/11 11:21:37;;;;;;;10.95;3.40;;;;;;;9.21;100.00;100083.69;5243759;28;20068;-79
2023/12/11 11:24:27;;;;;;;10.55;2.90;;;;;;;9.18;100.00;100109.75;5242157;28;20041;-77
2023/12/11 11:27:00;;;;;;;8.93;2.60;;;;;;;8.96;100.00;100112.72;5242166;28;20036;-79
2023/12/11 11:29:39;;;;;;;7.88;2.22;;;;;;;8.73;100.00;100116.56;5243439;28;20029;-80
2023/12/11 11:32:11;;;;;;;11.32;2.20;;;;;;;8.56;100.00;100121.16;5257504;28;20041;-81
2023/12/11 11:34:44;;;;;;;6.13;1.98;;;;;;;8.38;100.00;100120.50;5241969;28;20033;-79
2023/12/11 11:37:37;;;;;;;6.40;2.40;;;;;;;8.20;100.00;100119.03;5241549;28;20075;-80
2023/12/11 11:40:08;;;;;;;5.47;2.00;;;;;;;7.96;100.00;100109.84;5242177;28;20048;-80
2023/12/11 11:42:40;;;;;;;8.93;2.80;;;;;;;7.89;100.00;100115.13;5242657;28;20381;-80
2023/12/11 11:45:11;;;;;;;7.13;2.33;;;;;;;7.84;100.00;100121.25;5241847;28;20053;-79
2023/12/11 11:47:42;;;;;;;7.13;2.80;;;;;;;7.82;100.00;100110.03;5240546;28;20056;-79